Time;durP1;ratioP1;P1;durP2;ratioP2;P2;SDS_P1;SDS_P2;PMS_P1;PMS_P2;Temp;Humidity;BMP_temperature;BMP_pressure;BME280_temperature;BME280_humidity;BME280_pressure;Samples;Min_cycle;Max_cycle;Signal;HPM_P1;HPM_P2
2021/06/17 00:01:51;;;;;;;4.90;4.50;;;19.90;99.90;;;;;;5034489;28;20181;-67
2021/06/17 00:04:17;;;;;;;3.37;3.10;;;19.90;99.90;;;;;;5034601;28;20239;-66
2021/06/17 00:06:43;;;;;;;3.43;3.17;;;19.90;99.90;;;;;;5033980;28;20190;-67
2021/06/17 00:09:08;;;;;;;5.90;3.60;;;19.80;99.90;;;;;;5034648;28;20504;-66
2021/06/17 00:11:34;;;;;;;5.50;3.63;;;19.70;99.90;;;;;;5034225;28;20205;-67
2021/06/17 00:14:00;;;;;;;3.70;3.40;;;19.60;99.90;;;;;;5034493;28;20549;-66
2021/06/17 00:16:26;;;;;;;4.20;3.70;;;19.50;99.90;;;;;;5033890;28;20179;-66
2021/06/17 00:18:51;;;;;;;2.93;2.73;;;19.50;99.90;;;;;;5034657;28;20215;-66
2021/06/17 00:21:17;;;;;;;4.40;4.03;;;19.40;99.90;;;;;;5034353;28;20175;-66
2021/06/17 00:23:42;;;;;;;3.60;3.40;;;19.30;99.90;;;;;;5034254;28;20195;-67
2021/06/17 00:26:08;;;;;;;4.17;3.87;;;19.30;99.90;;;;;;5033603;28;20195;-66
2021/06/17 00:28:34;;;;;;;3.43;3.23;;;19.30;99.90;;;;;;5034309;28;20172;-67
2021/06/17 00:31:00;;;;;;;3.60;3.30;;;19.30;99.90;;;;;;5034288;28;20200;-66
2021/06/17 00:33:26;;;;;;;4.03;3.73;;;19.30;99.90;;;;;;5034138;28;20218;-66
2021/06/17 00:35:52;;;;;;;3.30;3.10;;;19.20;99.90;;;;;;5033584;28;20433;-66
2021/06/17 00:38:18;;;;;;;3.47;3.27;;;19.20;99.90;;;;;;5034103;28;20402;-66
2021/06/17 00:40:44;;;;;;;3.23;3.03;;;19.10;99.90;;;;;;5016534;28;20415;-66
2021/06/17 00:43:10;;;;;;;3.47;3.13;;;19.10;99.90;;;;;;5034066;28;20177;-66
2021/06/17 00:45:44;;;;;;;4.40;4.00;;;19.10;99.90;;;;;;5033447;28;20516;-65
2021/06/17 00:48:11;;;;;;;4.37;3.10;;;19.10;99.90;;;;;;5034236;28;20410;-66
2021/06/17 00:50:47;;;;;;;3.30;3.00;;;19.00;99.90;;;;;;5034476;28;20450;-66
2021/06/17 00:53:15;;;;;;;3.50;3.20;;;19.00;99.90;;;;;;5033789;28;20431;-66
2021/06/17 00:55:43;;;;;;;3.47;3.20;;;19.00;99.90;;;;;;5033440;28;20438;-66
2021/06/17 00:58:10;;;;;;;3.53;3.33;;;18.90;99.90;;;;;;5033901;28;20410;-66
2021/06/17 01:00:36;;;;;;;4.30;3.67;;;18.90;99.90;;;;;;5034030;28;20768;-66
2021/06/17 01:03:03;;;;;;;3.50;3.27;;;18.90;99.90;;;;;;5033631;28;20409;-67
2021/06/17 01:05:28;;;;;;;3.60;3.40;;;18.80;99.90;;;;;;5033303;28;20221;-67
2021/06/17 01:10:37;;;;;;;3.70;3.40;;;18.70;99.90;;;;;;5031095;28;20227;-66
2021/06/17 01:13:28;;;;;;;4.03;3.73;;;18.70;99.90;;;;;;5033659;28;20424;-66
2021/06/17 01:16:11;;;;;;;3.80;3.47;;;18.70;99.90;;;;;;5033371;28;20484;-66
2021/06/17 01:18:43;;;;;;;3.73;3.43;;;18.70;99.90;;;;;;5032766;28;20938;-67
2021/06/17 01:21:19;;;;;;;4.07;3.67;;;18.50;99.90;;;;;;5034158;28;20886;-66
2021/06/17 01:24:18;;;;;;;3.70;3.40;;;18.40;99.90;;;;;;5033907;28;20404;-67
2021/06/17 01:27:02;;;;;;;4.17;3.67;;;18.50;99.90;;;;;;5033421;28;20451;-67
2021/06/17 01:29:30;;;;;;;3.40;3.20;;;18.40;99.90;;;;;;5033200;28;20917;-66
2021/06/17 01:31:57;;;;;;;4.40;4.10;;;18.40;99.90;;;;;;5033349;28;20555;-66
2021/06/17 01:34:24;;;;;;;4.23;3.93;;;18.40;99.90;;;;;;5033395;28;20408;-67
2021/06/17 01:37:00;;;;;;;3.50;3.20;;;18.40;99.90;;;;;;5033696;28;20397;-66
2021/06/17 01:39:27;;;;;;;4.30;3.60;;;18.40;99.90;;;;;;5032155;28;20443;-66
2021/06/17 01:41:54;;;;;;;3.23;3.03;;;18.40;99.90;;;;;;5033367;28;20524;-66
2021/06/17 01:44:22;;;;;;;3.50;3.20;;;18.40;99.90;;;;;;5033289;28;20425;-66
2021/06/17 01:46:49;;;;;;;7.07;3.40;;;18.40;99.90;;;;;;5033251;28;20508;-66
2021/06/17 01:49:17;;;;;;;3.93;3.63;;;18.40;99.90;;;;;;5032934;28;20439;-67
2021/06/17 01:51:43;;;;;;;3.60;3.30;;;18.40;99.90;;;;;;5033427;28;20444;-66
2021/06/17 01:54:09;;;;;;;5.03;4.53;;;18.40;99.90;;;;;;5032585;28;20439;-67
2021/06/17 01:56:36;;;;;;;4.10;3.70;;;18.40;99.90;;;;;;5033197;28;20408;-66
2021/06/17 01:59:04;;;;;;;3.30;3.00;;;18.30;99.90;;;;;;5032798;28;20436;-67
2021/06/17 02:01:32;;;;;;;4.50;3.20;;;18.30;99.90;;;;;;5033301;28;20420;-67
2021/06/17 02:04:00;;;;;;;3.63;3.33;;;18.30;99.90;;;;;;5032903;28;20462;-67
2021/06/17 02:06:27;;;;;;;3.50;3.30;;;18.30;99.90;;;;;;5031780;28;20914;-67
2021/06/17 02:08:55;;;;;;;3.97;3.63;;;18.20;99.90;;;;;;5032528;28;20443;-66
2021/06/17 02:11:22;;;;;;;3.60;3.30;;;18.20;99.90;;;;;;5031528;28;20465;-66
2021/06/17 02:13:49;;;;;;;3.50;3.20;;;18.20;99.90;;;;;;5032724;28;20420;-66
2021/06/17 02:16:16;;;;;;;3.53;3.20;;;18.10;99.90;;;;;;5033039;28;20405;-66
2021/06/17 02:18:45;;;;;;;4.30;4.00;;;18.10;99.90;;;;;;5032493;28;20436;-66
2021/06/17 02:21:13;;;;;;;3.13;2.93;;;18.10;99.90;;;;;;5032830;28;20442;-67
2021/06/17 02:23:41;;;;;;;4.27;3.33;;;18.10;99.90;;;;;;5032476;28;20433;-66
2021/06/17 02:26:08;;;;;;;3.37;3.10;;;18.00;99.90;;;;;;5033209;28;20416;-67
2021/06/17 02:28:40;;;;;;;3.30;3.10;;;18.00;99.90;;;;;;5033980;28;20543;-67
2021/06/17 02:31:09;;;;;;;3.40;3.10;;;18.00;99.90;;;;;;5036609;28;20468;-67
2021/06/17 02:33:36;;;;;;;4.10;3.80;;;18.00;99.90;;;;;;5036211;28;20435;-67
2021/06/17 02:36:03;;;;;;;3.87;3.57;;;17.90;99.90;;;;;;5036573;28;20408;-67
2021/06/17 02:38:32;;;;;;;3.57;3.37;;;17.90;99.90;;;;;;5036263;28;20432;-66
2021/06/17 02:41:03;;;;;;;4.00;3.70;;;17.80;99.90;;;;;;5036389;28;20410;-67
2021/06/17 02:43:33;;;;;;;3.83;3.53;;;17.80;99.90;;;;;;5036175;28;20424;-67
2021/06/17 02:45:58;;;;;;;5.27;3.53;;;17.70;99.90;;;;;;5036498;28;20436;-67
2021/06/17 02:48:24;;;;;;;4.20;3.90;;;17.70;99.90;;;;;;5035818;28;20887;-67
2021/06/17 02:50:50;;;;;;;3.77;3.47;;;17.60;99.90;;;;;;5035937;28;20216;-67
2021/06/17 02:53:15;;;;;;;3.90;3.60;;;17.60;99.90;;;;;;5036188;28;20524;-67
2021/06/17 02:55:41;;;;;;;3.60;3.40;;;17.60;99.90;;;;;;5036081;28;20759;-67
2021/06/17 02:58:23;;;;;;;3.93;3.67;;;17.60;99.90;;;;;;5035605;28;20200;-66
2021/06/17 03:01:04;;;;;;;4.30;4.07;;;17.60;99.90;;;;;;5035810;28;20412;-66
2021/06/17 03:03:42;;;;;;;3.83;3.43;;;17.50;99.90;;;;;;5036136;28;20470;-66
2021/06/17 03:06:26;;;;;;;3.73;3.37;;;17.50;99.90;;;;;;5035952;28;20429;-66
2021/06/17 03:09:01;;;;;;;3.60;3.30;;;17.50;99.90;;;;;;5035428;28;20511;-66
2021/06/17 03:11:31;;;;;;;3.83;3.53;;;17.50;99.90;;;;;;5035242;28;20559;-67
2021/06/17 03:14:02;;;;;;;4.23;3.77;;;17.50;99.90;;;;;;5035986;28;20806;-67
2021/06/17 03:16:31;;;;;;;4.73;4.37;;;17.50;99.90;;;;;;5035712;28;20943;-67
2021/06/17 03:18:59;;;;;;;3.57;3.23;;;17.50;99.90;;;;;;5035398;28;20436;-67
2021/06/17 03:21:28;;;;;;;3.60;3.30;;;17.50;99.90;;;;;;5035547;28;20443;-66
2021/06/17 03:23:56;;;;;;;3.80;3.50;;;17.40;99.90;;;;;;5035750;28;20444;-67
2021/06/17 03:26:25;;;;;;;4.70;3.90;;;17.40;99.90;;;;;;5035657;28;20875;-67
2021/06/17 03:28:52;;;;;;;3.30;3.00;;;17.40;99.90;;;;;;5035137;28;20432;-67
2021/06/17 03:31:19;;;;;;;3.80;3.50;;;17.30;99.90;;;;;;5035095;28;20460;-67
2021/06/17 03:33:47;;;;;;;4.00;3.70;;;17.30;99.90;;;;;;5035524;28;20437;-67
2021/06/17 03:36:14;;;;;;;4.40;4.00;;;17.30;99.90;;;;;;5035544;28;20771;-67
2021/06/17 03:38:42;;;;;;;4.07;3.67;;;17.30;99.90;;;;;;5034669;28;20453;-67
2021/06/17 03:41:10;;;;;;;6.70;4.93;;;17.30;99.90;;;;;;5034284;28;20488;-66
2021/06/17 03:43:38;;;;;;;3.80;3.50;;;17.50;99.90;;;;;;5034152;28;20439;-67
2021/06/17 03:46:04;;;;;;;4.43;4.07;;;17.80;99.90;;;;;;5035283;28;20419;-67
2021/06/17 03:48:32;;;;;;;4.43;4.13;;;18.00;99.90;;;;;;5034305;28;20453;-67
2021/06/17 03:51:00;;;;;;;4.87;3.77;;;18.10;99.90;;;;;;5035040;28;20463;-67
2021/06/17 03:53:26;;;;;;;4.50;4.10;;;18.20;99.90;;;;;;5034980;28;20883;-67
2021/06/17 03:55:53;;;;;;;3.40;3.07;;;18.10;99.90;;;;;;5035020;28;20405;-66
2021/06/17 03:58:23;;;;;;;5.10;3.70;;;18.00;99.90;;;;;;5034276;28;20956;-67
2021/06/17 04:00:49;;;;;;;4.20;3.90;;;18.00;99.90;;;;;;5035005;28;20405;-67
2021/06/17 04:03:16;;;;;;;3.60;3.40;;;18.00;99.90;;;;;;5034931;28;20415;-68
2021/06/17 04:05:41;;;;;;;4.20;3.90;;;18.00;99.90;;;;;;5034904;28;20437;-68
2021/06/17 04:08:10;;;;;;;6.43;4.00;;;18.00;99.90;;;;;;5033956;28;20449;-68
2021/06/17 04:10:38;;;;;;;6.40;5.00;;;18.00;99.90;;;;;;5034559;28;20256;-66
2021/06/17 04:13:07;;;;;;;9.53;6.20;;;18.20;99.90;;;;;;5035145;28;20545;-67
2021/06/17 04:15:34;;;;;;;4.80;4.40;;;18.30;99.90;;;;;;5034496;28;20552;-67
2021/06/17 04:18:01;;;;;;;8.60;5.07;;;18.50;99.90;;;;;;5033597;28;20814;-66
2021/06/17 04:20:34;;;;;;;5.63;3.90;;;18.70;99.90;;;;;;5034095;28;20533;-67
2021/06/17 04:23:01;;;;;;;3.50;3.20;;;19.00;99.90;;;;;;5034669;28;20410;-66
2021/06/17 04:25:28;;;;;;;6.13;3.80;;;19.40;99.90;;;;;;5034329;28;20465;-68
2021/06/17 04:28:02;;;;;;;4.07;3.77;;;19.80;99.90;;;;;;5034011;28;20513;-68
2021/06/17 04:30:30;;;;;;;4.57;4.03;;;20.40;99.90;;;;;;5033949;28;20455;-68
2021/06/17 04:32:59;;;;;;;5.20;4.30;;;20.90;99.90;;;;;;5034225;28;20506;-67
2021/06/17 04:35:26;;;;;;;3.93;3.63;;;21.10;99.90;;;;;;5034191;28;20405;-66
2021/06/17 04:37:52;;;;;;;5.33;3.37;;;21.20;99.90;;;;;;5033875;28;20455;-66
2021/06/17 04:40:20;;;;;;;4.80;4.30;;;21.30;99.90;;;;;;5033614;28;20503;-66
2021/06/17 04:42:47;;;;;;;4.30;3.63;;;21.00;99.90;;;;;;5034316;28;20416;-67
2021/06/17 04:45:14;;;;;;;4.00;3.70;;;20.80;99.90;;;;;;5032654;28;20416;-66
2021/06/17 04:47:48;;;;;;;4.33;3.93;;;20.70;99.90;;;;;;5031709;28;20475;-66
2021/06/17 04:50:14;;;;;;;6.17;4.40;;;20.70;99.90;;;;;;5032691;28;20482;-66
2021/06/17 04:52:55;;;;;;;4.63;4.23;;;20.60;99.90;;;;;;5033453;28;20447;-65
2021/06/17 04:55:21;;;;;;;5.43;5.03;;;20.40;99.90;;;;;;5033760;28;20404;-65
2021/06/17 04:57:47;;;;;;;5.00;4.60;;;20.30;99.90;;;;;;5033351;28;20967;-65
2021/06/17 05:00:13;;;;;;;4.53;4.13;;;20.20;99.90;;;;;;5033355;28;20445;-65
2021/06/17 05:02:39;;;;;;;7.87;4.30;;;20.20;99.90;;;;;;5033918;28;20257;-65
2021/06/17 05:05:07;;;;;;;8.40;3.90;;;20.30;99.90;;;;;;5033903;28;20438;-66
2021/06/17 05:12:43;;;;;;;5.03;4.60;;;20.50;99.90;;;;;;5034061;28;20427;-66
2021/06/17 05:15:10;;;;;;;4.47;4.03;;;20.50;99.90;;;;;;5033877;28;20400;-65
2021/06/17 05:17:37;;;;;;;5.00;4.03;;;20.60;99.90;;;;;;5032976;28;20176;-66
2021/06/17 05:20:07;;;;;;;4.80;4.30;;;20.60;99.90;;;;;;5033632;28;20534;-66
2021/06/17 05:22:36;;;;;;;4.23;3.83;;;20.70;99.90;;;;;;5032300;28;20430;-66
2021/06/17 05:25:04;;;;;;;4.27;3.87;;;20.70;99.90;;;;;;5033455;28;20412;-66
2021/06/17 05:27:30;;;;;;;5.03;4.40;;;20.80;99.90;;;;;;5032814;28;20409;-66
2021/06/17 05:29:56;;;;;;;5.07;4.53;;;20.90;99.90;;;;;;5033192;28;20448;-65
2021/06/17 05:32:24;;;;;;;3.67;3.37;;;20.90;99.90;;;;;;5033128;28;20765;-66
2021/06/17 05:34:50;;;;;;;3.83;3.47;;;21.10;99.90;;;;;;5033423;28;20885;-66
2021/06/17 05:37:15;;;;;;;4.07;3.17;;;21.20;99.90;;;;;;5031905;28;20437;-65
2021/06/17 05:39:41;;;;;;;3.80;3.40;;;21.40;99.90;;;;;;5033296;28;20628;-65
2021/06/17 05:42:08;;;;;;;4.97;4.23;;;21.60;99.90;;;;;;5032678;28;20189;-67
2021/06/17 05:44:34;;;;;;;4.10;3.63;;;21.90;99.90;;;;;;5032918;28;20509;-67
2021/06/17 05:46:59;;;;;;;4.30;3.43;;;22.40;99.90;;;;;;5033223;28;20505;-65
2021/06/17 05:49:25;;;;;;;3.97;3.67;;;23.00;99.90;;;;;;5031763;28;20942;-66
2021/06/17 05:51:52;;;;;;;3.23;3.03;;;23.60;99.90;;;;;;5032794;28;20200;-66
2021/06/17 05:54:18;;;;;;;3.43;3.20;;;24.10;99.40;;;;;;5032524;28;20417;-65
2021/06/17 05:56:44;;;;;;;4.60;4.07;;;24.60;97.60;;;;;;5031450;28;20421;-65
2021/06/17 05:59:10;;;;;;;3.97;3.60;;;25.10;96.80;;;;;;5032339;28;20503;-65
2021/06/17 06:01:35;;;;;;;4.03;3.73;;;25.30;95.30;;;;;;5033013;28;20417;-66
2021/06/17 06:04:01;;;;;;;4.87;3.33;;;25.30;95.40;;;;;;5034832;28;20186;-65
2021/06/17 06:06:27;;;;;;;3.90;3.20;;;25.10;95.80;;;;;;5037190;28;20261;-66
2021/06/17 06:08:52;;;;;;;3.57;3.33;;;25.00;94.80;;;;;;5036503;28;20194;-65
2021/06/17 06:11:18;;;;;;;4.00;3.70;;;24.80;95.20;;;;;;5037285;28;20289;-65
2021/06/17 06:13:46;;;;;;;4.40;4.13;;;24.80;95.30;;;;;;5037291;28;20174;-66
2021/06/17 06:16:11;;;;;;;3.00;2.70;;;24.80;95.40;;;;;;5036283;28;20572;-65
2021/06/17 06:18:37;;;;;;;8.73;3.73;;;24.70;95.70;;;;;;5035652;28;20425;-66
2021/06/17 06:21:03;;;;;;;3.87;3.57;;;24.60;96.20;;;;;;5036634;28;20175;-66
2021/06/17 06:23:29;;;;;;;4.13;3.73;;;24.50;96.10;;;;;;5035774;28;20508;-65
2021/06/17 06:25:55;;;;;;;7.40;3.53;;;24.40;96.40;;;;;;5036736;28;20409;-66
2021/06/17 06:28:22;;;;;;;3.40;3.10;;;24.50;96.80;;;;;;5036365;28;20415;-66
2021/06/17 06:30:50;;;;;;;3.90;3.50;;;24.50;96.30;;;;;;5035796;28;20452;-65
2021/06/17 06:33:17;;;;;;;3.80;3.40;;;24.60;96.20;;;;;;5036263;28;20474;-65
2021/06/17 06:35:42;;;;;;;4.30;4.00;;;24.80;96.70;;;;;;5031357;28;20434;-66
2021/06/17 06:38:08;;;;;;;4.00;3.70;;;24.80;96.30;;;;;;5034490;28;20425;-65
2021/06/17 06:40:35;;;;;;;6.80;4.03;;;24.90;96.50;;;;;;5030692;28;20830;-65
2021/06/17 06:43:00;;;;;;;4.10;3.50;;;24.90;97.00;;;;;;5035425;28;20850;-65
2021/06/17 06:45:26;;;;;;;3.87;3.57;;;25.00;96.80;;;;;;5036092;28;20518;-66
2021/06/17 06:47:52;;;;;;;12.13;3.87;;;25.10;96.00;;;;;;5035291;28;20179;-65
2021/06/17 06:50:19;;;;;;;3.83;3.53;;;25.20;95.60;;;;;;5035833;28;21228;-66
2021/06/17 06:52:46;;;;;;;3.50;3.20;;;25.40;94.80;;;;;;5035535;28;20417;-66
2021/06/17 06:55:13;;;;;;;3.63;3.43;;;25.50;94.50;;;;;;5036271;28;20409;-64
2021/06/17 06:57:40;;;;;;;3.53;3.20;;;25.70;94.40;;;;;;5035352;28;20416;-66
2021/06/17 07:00:11;;;;;;;3.50;3.23;;;25.90;93.60;;;;;;5036042;28;20443;-65
2021/06/17 07:02:37;;;;;;;3.53;3.23;;;26.00;93.40;;;;;;5029973;28;20482;-65
2021/06/17 07:05:04;;;;;;;2.80;2.60;;;26.10;93.00;;;;;;5035842;28;20896;-64
2021/06/17 07:07:30;;;;;;;2.87;2.67;;;26.20;92.10;;;;;;5035202;28;20458;-64
2021/06/17 07:09:56;;;;;;;2.97;2.77;;;26.40;92.00;;;;;;5035560;28;20935;-68
2021/06/17 07:12:21;;;;;;;6.93;3.27;;;26.50;91.90;;;;;;5033985;28;20174;-67
2021/06/17 07:14:48;;;;;;;3.70;3.40;;;26.60;91.30;;;;;;5034047;28;20205;-67
2021/06/17 07:17:14;;;;;;;3.83;3.37;;;26.70;91.20;;;;;;5035189;28;20260;-67
2021/06/17 07:19:40;;;;;;;3.17;2.97;;;26.70;90.90;;;;;;5034720;28;20476;-67
2021/06/17 07:22:06;;;;;;;3.33;3.10;;;26.90;90.90;;;;;;5035270;28;20442;-68
2021/06/17 07:24:32;;;;;;;3.20;3.00;;;27.40;90.90;;;;;;5035079;28;20422;-67
2021/06/17 07:26:57;;;;;;;3.80;3.43;;;28.00;90.10;;;;;;5034747;28;20173;-68
2021/06/17 07:29:23;;;;;;;3.80;3.43;;;28.70;87.50;;;;;;5050510;28;20225;-68
2021/06/17 07:31:49;;;;;;;3.53;3.33;;;29.40;85.40;;;;;;5030122;28;20241;-68
2021/06/17 07:34:15;;;;;;;2.80;2.60;;;30.10;84.60;;;;;;5033390;28;20182;-68
2021/06/17 07:36:42;;;;;;;4.23;3.93;;;30.90;81.40;;;;;;5035271;28;20171;-69
2021/06/17 07:39:10;;;;;;;3.30;3.10;;;32.10;78.40;;;;;;5043393;28;20189;-69
2021/06/17 07:41:36;;;;;;;3.50;3.20;;;33.10;71.70;;;;;;5034798;28;20414;-67
2021/06/17 07:44:03;;;;;;;4.10;3.80;;;34.00;68.50;;;;;;5035275;28;20475;-66
2021/06/17 07:46:29;;;;;;;3.87;3.67;;;34.80;66.50;;;;;;5035104;28;20182;-69
2021/06/17 07:48:56;;;;;;;3.87;3.67;;;35.60;62.20;;;;;;5034633;28;20835;-69
2021/06/17 07:51:22;;;;;;;4.00;3.80;;;36.40;59.20;;;;;;5044117;28;20215;-66
2021/06/17 07:53:47;;;;;;;4.40;4.10;;;36.80;58.60;;;;;;5044816;28;20860;-67
2021/06/17 07:56:13;;;;;;;3.97;3.63;;;37.30;56.90;;;;;;5034967;28;20177;-66
2021/06/17 07:58:42;;;;;;;4.10;3.83;;;37.60;55.90;;;;;;5034253;28;20194;-66
2021/06/17 08:01:08;;;;;;;3.60;3.40;;;38.20;54.70;;;;;;5034920;28;20212;-64
2021/06/17 08:03:34;;;;;;;4.30;4.10;;;38.50;53.80;;;;;;5034543;28;20409;-64
2021/06/17 08:06:00;;;;;;;3.40;3.17;;;38.70;51.70;;;;;;5034990;28;20220;-64
2021/06/17 08:08:25;;;;;;;3.60;3.40;;;39.00;51.40;;;;;;5034358;28;20660;-65
2021/06/17 08:10:51;;;;;;;4.67;4.27;;;39.60;51.70;;;;;;5034073;28;20205;-65
2021/06/17 08:13:17;;;;;;;4.00;3.60;;;39.90;49.80;;;;;;5034625;28;20182;-65
2021/06/17 08:15:43;;;;;;;4.87;4.60;;;40.10;49.70;;;;;;5034773;28;20667;-64
2021/06/17 08:18:09;;;;;;;4.13;3.93;;;40.50;48.30;;;;;;5034348;28;20182;-64
2021/06/17 08:20:34;;;;;;;3.87;3.67;;;40.80;47.50;;;;;;5034346;28;20627;-64
2021/06/17 08:23:00;;;;;;;4.37;4.07;;;40.80;47.20;;;;;;5034587;28;20171;-65
2021/06/17 08:25:26;;;;;;;4.30;3.90;;;41.30;45.90;;;;;;5034366;28;20249;-65
2021/06/17 08:27:52;;;;;;;4.40;4.20;;;41.70;45.30;;;;;;5042934;28;20178;-65
2021/06/17 08:30:18;;;;;;;4.03;3.73;;;41.90;45.10;;;;;;5054010;28;20662;-65
2021/06/17 08:32:45;;;;;;;5.63;5.23;;;42.30;44.30;;;;;;5054149;28;20177;-65
2021/06/17 08:35:13;;;;;;;4.03;3.83;;;43.00;43.80;;;;;;5054098;28;20434;-65
2021/06/17 08:37:39;;;;;;;4.20;4.00;;;43.00;43.50;;;;;;5053731;28;20444;-65
2021/06/17 08:40:06;;;;;;;4.87;4.57;;;43.20;43.30;;;;;;5054110;28;20420;-64
2021/06/17 08:42:32;;;;;;;4.67;4.30;;;42.70;42.20;;;;;;5054159;28;20408;-65
2021/06/17 08:44:59;;;;;;;4.00;3.80;;;42.10;43.20;;;;;;5053965;28;20882;-66
2021/06/17 08:47:26;;;;;;;4.17;3.97;;;41.80;43.50;;;;;;5053817;28;20177;-66
2021/06/17 08:49:53;;;;;;;4.03;3.83;;;41.90;43.90;;;;;;5053838;28;20420;-66
2021/06/17 08:52:20;;;;;;;5.33;4.93;;;41.80;43.50;;;;;;5054063;28;20414;-66
2021/06/17 08:54:46;;;;;;;4.53;4.23;;;41.80;43.40;;;;;;5053974;28;20491;-66
2021/06/17 08:57:13;;;;;;;4.10;3.90;;;42.00;43.40;;;;;;5053634;28;20992;-65
2021/06/17 08:59:41;;;;;;;4.53;4.23;;;42.10;43.10;;;;;;5053860;28;20446;-65
2021/06/17 09:02:07;;;;;;;4.23;3.93;;;42.50;42.80;;;;;;5053532;28;21043;-65
2021/06/17 09:04:34;;;;;;;4.80;4.50;;;42.70;41.60;;;;;;5053672;28;20491;-66
2021/06/17 09:07:11;;;;;;;4.60;4.40;;;42.40;42.10;;;;;;5053867;28;20408;-66
2021/06/17 09:09:43;;;;;;;4.87;4.60;;;42.20;42.50;;;;;;5053600;28;20444;-65
2021/06/17 09:12:12;;;;;;;5.10;4.80;;;42.30;42.50;;;;;;5053576;28;20495;-65
2021/06/17 09:14:38;;;;;;;4.93;4.60;;;42.20;43.00;;;;;;5053721;28;20412;-66
2021/06/17 09:17:07;;;;;;;5.60;5.20;;;42.40;42.60;;;;;;5053496;28;20403;-66
2021/06/17 09:19:44;;;;;;;6.43;4.50;;;42.60;42.20;;;;;;5053412;28;20845;-66
2021/06/17 09:22:16;;;;;;;5.57;5.27;;;42.70;41.90;;;;;;5053325;28;20447;-66
2021/06/17 09:24:45;;;;;;;4.93;4.73;;;42.80;42.10;;;;;;5053659;28;20797;-66
2021/06/17 09:27:22;;;;;;;4.73;4.43;;;42.80;41.20;;;;;;5049670;28;20439;-66
2021/06/17 09:29:51;;;;;;;5.50;5.20;;;42.80;41.60;;;;;;5033375;28;20941;-67
2021/06/17 09:32:28;;;;;;;4.70;4.50;;;43.00;41.00;;;;;;5033515;28;20467;-67
2021/06/17 09:34:54;;;;;;;5.40;5.00;;;42.80;40.90;;;;;;5033502;28;20409;-66
2021/06/17 09:37:29;;;;;;;5.87;5.57;;;42.60;41.70;;;;;;5032526;28;20523;-65
2021/06/17 09:39:55;;;;;;;4.73;4.33;;;42.40;42.20;;;;;;5033078;28;20489;-66
2021/06/17 09:42:28;;;;;;;4.20;3.90;;;42.10;42.30;;;;;;5032108;28;20440;-66
2021/06/17 09:44:54;;;;;;;4.50;4.20;;;41.90;42.10;;;;;;5033530;28;20903;-65
2021/06/17 09:47:25;;;;;;;5.07;4.87;;;41.50;42.70;;;;;;5032946;28;20416;-66
2021/06/17 09:49:52;;;;;;;5.30;4.90;;;41.70;43.30;;;;;;5033102;28;20513;-66
2021/06/17 09:52:18;;;;;;;5.70;5.40;;;42.00;41.30;;;;;;5033140;28;20416;-66
2021/06/17 09:54:45;;;;;;;4.60;4.30;;;42.50;41.50;;;;;;5033301;28;20808;-66
2021/06/17 09:57:15;;;;;;;4.73;4.53;;;43.10;40.50;;;;;;5032936;28;20473;-66
2021/06/17 09:59:53;;;;;;;5.07;4.80;;;43.50;39.70;;;;;;5032894;28;20436;-66
2021/06/17 10:02:45;;;;;;;4.60;4.40;;;43.70;40.00;;;;;;5033301;28;20447;-66
2021/06/17 10:05:15;;;;;;;4.90;4.60;;;43.70;40.10;;;;;;5030259;28;20806;-67
2021/06/17 10:07:42;;;;;;;5.10;4.90;;;43.80;38.80;;;;;;5032925;28;20172;-66
2021/06/17 10:10:09;;;;;;;4.80;4.60;;;43.60;39.50;;;;;;5032800;28;20209;-67
2021/06/17 10:12:36;;;;;;;5.13;4.83;;;43.60;38.70;;;;;;5033057;28;20396;-67
2021/06/17 10:15:04;;;;;;;5.30;5.00;;;43.40;38.60;;;;;;5033123;28;20416;-67
2021/06/17 10:17:30;;;;;;;5.43;4.93;;;43.20;39.50;;;;;;5032692;28;20873;-64
2021/06/17 10:19:56;;;;;;;5.00;4.60;;;43.30;40.20;;;;;;5032826;28;20424;-66
2021/06/17 10:22:32;;;;;;;5.90;5.50;;;42.90;39.40;;;;;;5031879;28;20898;-65
2021/06/17 10:24:59;;;;;;;4.43;4.23;;;43.00;39.60;;;;;;5032067;28;20479;-65
2021/06/17 10:27:37;;;;;;;4.97;4.67;;;42.40;40.30;;;;;;5037393;28;20469;-65
2021/06/17 10:30:06;;;;;;;4.60;4.33;;;42.60;41.40;;;;;;5034527;28;20919;-66
2021/06/17 10:32:34;;;;;;;4.63;4.43;;;42.70;40.00;;;;;;5032593;28;20786;-67
2021/06/17 10:35:00;;;;;;;4.40;4.20;;;42.20;38.90;;;;;;5032563;28;20421;-65
2021/06/17 10:37:34;;;;;;;4.80;4.50;;;42.10;40.20;;;;;;5032219;28;20413;-65
2021/06/17 10:40:05;;;;;;;5.27;4.97;;;42.00;41.30;;;;;;5031707;28;20433;-65
2021/06/17 10:42:33;;;;;;;5.27;4.97;;;41.80;39.40;;;;;;5032449;28;20420;-66
2021/06/17 10:45:07;;;;;;;4.57;4.27;;;41.60;38.60;;;;;;5032330;28;20914;-67
2021/06/17 10:47:49;;;;;;;6.27;4.30;;;41.10;41.80;;;;;;5032348;28;20451;-65
2021/06/17 10:50:37;;;;;;;5.17;4.87;;;41.10;41.30;;;;;;5034695;28;20803;-66
2021/06/17 10:53:35;;;;;;;4.53;4.23;;;40.60;40.60;;;;;;5019053;28;20960;-65
2021/06/17 10:56:09;;;;;;;4.20;4.00;;;40.10;41.10;;;;;;5015369;28;20499;-66
2021/06/17 10:58:40;;;;;;;4.80;4.47;;;39.90;40.80;;;;;;5035286;28;20463;-66
2021/06/17 11:01:24;;;;;;;4.13;3.93;;;39.70;41.40;;;;;;5035025;28;20550;-67
2021/06/17 11:04:10;;;;;;;4.33;4.03;;;39.40;41.40;;;;;;5035797;28;20436;-67
2021/06/17 11:06:48;;;;;;;5.07;4.77;;;39.70;42.40;;;;;;5034037;28;20436;-65
2021/06/17 11:09:43;;;;;;;3.80;3.60;;;39.90;41.10;;;;;;5035174;28;20523;-67
2021/06/17 11:12:17;;;;;;;4.80;4.40;;;39.90;42.10;;;;;;5035593;28;20428;-67
2021/06/17 11:14:51;;;;;;;5.00;4.60;;;39.90;41.80;;;;;;5035206;28;20428;-67
2021/06/17 11:17:33;;;;;;;5.00;4.60;;;39.10;41.90;;;;;;5035340;28;20393;-68
2021/06/17 11:20:19;;;;;;;5.47;5.10;;;38.40;42.80;;;;;;5034991;28;20429;-67
2021/06/17 11:22:49;;;;;;;6.03;4.50;;;37.80;44.90;;;;;;5015865;28;20453;-68
2021/06/17 11:25:18;;;;;;;6.87;4.80;;;37.30;44.30;;;;;;5033030;28;20427;-68
2021/06/17 11:28:05;;;;;;;5.13;4.70;;;36.70;45.00;;;;;;5035167;28;20711;-67
2021/06/17 11:30:42;;;;;;;4.13;3.83;;;36.00;45.80;;;;;;5034734;28;20471;-66
2021/06/17 11:33:20;;;;;;;4.70;4.30;;;35.50;45.70;;;;;;5035543;28;20391;-68
2021/06/17 11:35:48;;;;;;;4.03;3.83;;;35.00;46.00;;;;;;5015665;28;20794;-67
2021/06/17 11:38:25;;;;;;;4.10;3.80;;;34.50;46.30;;;;;;5021319;28;20421;-67
2021/06/17 11:40:52;;;;;;;3.93;3.70;;;34.10;46.20;;;;;;5034911;28;20448;-67
2021/06/17 11:43:25;;;;;;;4.13;3.83;;;33.80;47.60;;;;;;5035075;28;20806;-68
2021/06/17 11:45:50;;;;;;;4.07;3.77;;;33.50;46.70;;;;;;5034722;28;20405;-67
2021/06/17 11:48:16;;;;;;;7.33;4.23;;;33.40;47.00;;;;;;5034333;28;20479;-67
2021/06/17 11:50:43;;;;;;;4.60;4.20;;;33.30;48.40;;;;;;5034408;28;20428;-67
2021/06/17 11:53:20;;;;;;;4.50;4.20;;;33.00;48.80;;;;;;5035165;28;20188;-67
2021/06/17 11:55:46;;;;;;;4.40;4.10;;;32.90;49.70;;;;;;5014933;28;20975;-67
2021/06/17 11:58:12;;;;;;;4.33;4.03;;;32.90;48.90;;;;;;5014758;28;20389;-68
2021/06/17 12:00:37;;;;;;;4.53;4.10;;;32.80;49.10;;;;;;5032517;28;20461;-66
2021/06/17 12:03:16;;;;;;;3.80;3.60;;;32.80;49.50;;;;;;5034688;28;20658;-67
2021/06/17 12:05:41;;;;;;;4.33;4.03;;;32.70;49.20;;;;;;5034423;28;20525;-68
2021/06/17 12:08:09;;;;;;;3.87;3.57;;;32.70;49.00;;;;;;5033911;28;20388;-69
2021/06/17 12:10:36;;;;;;;3.70;3.40;;;32.70;49.30;;;;;;5033608;28;20209;-68
2021/06/17 12:13:04;;;;;;;3.23;3.03;;;32.80;50.70;;;;;;5034728;28;20804;-66
2021/06/17 12:15:39;;;;;;;5.00;3.70;;;32.90;50.80;;;;;;5034215;28;20891;-66
2021/06/17 12:18:09;;;;;;;4.23;3.83;;;33.00;51.30;;;;;;5033508;28;20887;-68
2021/06/17 12:20:37;;;;;;;4.83;4.43;;;33.20;50.60;;;;;;5034834;28;20543;-67
2021/06/17 12:23:22;;;;;;;4.13;3.83;;;33.30;50.20;;;;;;5034121;28;20425;-66
2021/06/17 12:25:57;;;;;;;3.70;3.43;;;33.50;48.50;;;;;;5033794;28;20391;-65
2021/06/17 12:28:24;;;;;;;4.07;3.77;;;33.50;47.70;;;;;;5032152;28;20428;-68
2021/06/17 12:30:50;;;;;;;4.10;3.80;;;33.40;47.70;;;;;;5033290;28;20407;-67
2021/06/17 12:33:28;;;;;;;3.77;3.47;;;33.40;47.50;;;;;;5032731;28;20426;-67
2021/06/17 12:36:17;;;;;;;3.97;3.67;;;33.20;48.70;;;;;;5034301;28;20485;-67
2021/06/17 12:38:43;;;;;;;3.70;3.47;;;33.10;47.50;;;;;;5025522;28;20423;-67
2021/06/17 12:41:19;;;;;;;4.20;3.90;;;33.00;48.70;;;;;;5033602;28;20446;-67
2021/06/17 12:43:50;;;;;;;3.87;3.67;;;33.10;47.40;;;;;;5033771;28;20417;-66
2021/06/17 12:46:23;;;;;;;3.70;3.40;;;33.00;47.10;;;;;;5033739;28;20403;-67
2021/06/17 12:54:30;;;;;;;3.93;3.57;;;33.10;47.00;;;;;;5034312;28;20473;-67
2021/06/17 12:57:00;;;;;;;3.90;3.70;;;33.10;47.00;;;;;;5033555;28;20576;-66
2021/06/17 12:59:35;;;;;;;3.43;3.13;;;33.10;47.30;;;;;;5033242;28;20473;-68
2021/06/17 13:02:01;;;;;;;4.10;3.80;;;33.00;47.50;;;;;;5033549;28;20502;-66
2021/06/17 13:04:27;;;;;;;3.73;2.93;;;33.00;47.60;;;;;;5033746;28;20921;-65
2021/06/17 13:06:52;;;;;;;3.63;3.33;;;32.90;47.60;;;;;;5033392;28;20391;-68
2021/06/17 13:09:29;;;;;;;3.37;3.07;;;32.90;47.50;;;;;;5032803;28;20217;-66
2021/06/17 13:12:24;;;;;;;3.50;3.30;;;33.00;48.30;;;;;;5032102;28;20189;-68